sensor_id;sensor_type;location;lat;lon;timestamp;P1;durP1;ratioP1;P2;durP2;ratioP2
40951;SDS011;26682;51.660;19.338;2023-05-09T00:02:22;77.63;;;40.90;;
40951;SDS011;26682;51.660;19.338;2023-05-09T00:05:05;78.05;;;40.28;;
40951;SDS011;26682;51.660;19.338;2023-05-09T00:07:50;78.37;;;40.40;;
40951;SDS011;26682;51.660;19.338;2023-05-09T00:10:33;81.43;;;40.35;;
40951;SDS011;26682;51.660;19.338;2023-05-09T00:13:15;70.78;;;39.13;;
40951;SDS011;26682;51.660;19.338;2023-05-09T00:15:58;71.72;;;40.67;;
40951;SDS011;26682;51.660;19.338;2023-05-09T00:18:41;76.50;;;40.28;;
40951;SDS011;26682;51.660;19.338;2023-05-09T00:21:24;69.80;;;38.60;;
40951;SDS011;26682;51.660;19.338;2023-05-09T00:24:07;66.38;;;37.15;;
40951;SDS011;26682;51.660;19.338;2023-05-09T00:26:49;66.00;;;36.63;;
40951;SDS011;26682;51.660;19.338;2023-05-09T00:29:31;60.53;;;35.65;;
40951;SDS011;26682;51.660;19.338;2023-05-09T00:32:14;63.42;;;36.30;;
40951;SDS011;26682;51.660;19.338;2023-05-09T00:34:56;62.30;;;35.45;;
40951;SDS011;26682;51.660;19.338;2023-05-09T00:37:39;55.97;;;33.72;;
40951;SDS011;26682;51.660;19.338;2023-05-09T00:40:21;51.25;;;32.65;;
40951;SDS011;26682;51.660;19.338;2023-05-09T00:43:04;57.50;;;32.75;;
40951;SDS011;26682;51.660;19.338;2023-05-09T00:45:46;51.45;;;32.90;;
40951;SDS011;26682;51.660;19.338;2023-05-09T00:48:29;57.15;;;32.47;;
40951;SDS011;26682;51.660;19.338;2023-05-09T00:51:11;48.53;;;29.45;;
40951;SDS011;26682;51.660;19.338;2023-05-09T00:53:54;51.58;;;29.63;;
40951;SDS011;26682;51.660;19.338;2023-05-09T00:56:37;47.08;;;29.52;;
40951;SDS011;26682;51.660;19.338;2023-05-09T00:59:20;47.28;;;29.58;;
40951;SDS011;26682;51.660;19.338;2023-05-09T01:02:02;47.60;;;28.05;;
40951;SDS011;26682;51.660;19.338;2023-05-09T01:04:45;42.63;;;26.33;;
40951;SDS011;26682;51.660;19.338;2023-05-09T01:07:29;47.92;;;27.42;;
40951;SDS011;26682;51.660;19.338;2023-05-09T01:13:51;41.97;;;26.80;;
40951;SDS011;26682;51.660;19.338;2023-05-09T01:17:01;40.22;;;26.10;;
40951;SDS011;26682;51.660;19.338;2023-05-09T01:20:11;42.15;;;25.40;;
40951;SDS011;26682;51.660;19.338;2023-05-09T01:23:45;44.40;;;25.40;;
40951;SDS011;26682;51.660;19.338;2023-05-09T01:29:36;37.55;;;23.45;;
40951;SDS011;26682;51.660;19.338;2023-05-09T01:32:27;40.63;;;24.77;;
40951;SDS011;26682;51.660;19.338;2023-05-09T01:35:13;39.90;;;24.23;;
40951;SDS011;26682;51.660;19.338;2023-05-09T01:37:58;34.97;;;22.67;;
40951;SDS011;26682;51.660;19.338;2023-05-09T01:40:41;34.55;;;22.10;;
40951;SDS011;26682;51.660;19.338;2023-05-09T01:43:28;40.28;;;24.77;;
40951;SDS011;26682;51.660;19.338;2023-05-09T01:46:11;34.28;;;24.17;;
40951;SDS011;26682;51.660;19.338;2023-05-09T01:48:55;33.80;;;23.77;;
40951;SDS011;26682;51.660;19.338;2023-05-09T01:51:38;41.95;;;23.10;;
40951;SDS011;26682;51.660;19.338;2023-05-09T01:54:25;35.97;;;23.05;;
40951;SDS011;26682;51.660;19.338;2023-05-09T01:57:09;35.05;;;22.80;;
40951;SDS011;26682;51.660;19.338;2023-05-09T01:59:53;34.63;;;24.60;;
40951;SDS011;26682;51.660;19.338;2023-05-09T02:02:38;42.00;;;28.80;;
40951;SDS011;26682;51.660;19.338;2023-05-09T02:05:27;39.55;;;25.95;;
40951;SDS011;26682;51.660;19.338;2023-05-09T02:08:11;36.55;;;25.50;;
40951;SDS011;26682;51.660;19.338;2023-05-09T02:10:56;38.57;;;24.90;;
40951;SDS011;26682;51.660;19.338;2023-05-09T02:13:38;36.80;;;25.05;;
40951;SDS011;26682;51.660;19.338;2023-05-09T02:16:21;36.88;;;24.95;;
40951;SDS011;26682;51.660;19.338;2023-05-09T02:19:04;33.13;;;24.27;;
40951;SDS011;26682;51.660;19.338;2023-05-09T02:21:47;34.35;;;23.52;;
40951;SDS011;26682;51.660;19.338;2023-05-09T02:24:30;35.10;;;22.02;;
40951;SDS011;26682;51.660;19.338;2023-05-09T02:27:14;35.20;;;20.83;;
40951;SDS011;26682;51.660;19.338;2023-05-09T02:29:57;30.27;;;20.77;;
40951;SDS011;26682;51.660;19.338;2023-05-09T02:32:44;32.50;;;22.05;;
40951;SDS011;26682;51.660;19.338;2023-05-09T02:35:29;30.25;;;20.95;;
40951;SDS011;26682;51.660;19.338;2023-05-09T02:38:12;31.33;;;20.77;;
40951;SDS011;26682;51.660;19.338;2023-05-09T02:40:55;33.13;;;19.88;;
40951;SDS011;26682;51.660;19.338;2023-05-09T02:43:40;29.65;;;19.17;;
40951;SDS011;26682;51.660;19.338;2023-05-09T02:46:22;29.10;;;19.55;;
40951;SDS011;26682;51.660;19.338;2023-05-09T02:49:05;35.13;;;19.50;;
40951;SDS011;26682;51.660;19.338;2023-05-09T02:51:47;36.05;;;20.17;;
40951;SDS011;26682;51.660;19.338;2023-05-09T02:54:30;30.25;;;20.02;;
40951;SDS011;26682;51.660;19.338;2023-05-09T02:57:12;34.60;;;21.42;;
40951;SDS011;26682;51.660;19.338;2023-05-09T02:59:57;29.48;;;19.40;;
40951;SDS011;26682;51.660;19.338;2023-05-09T03:02:40;30.23;;;20.15;;
40951;SDS011;26682;51.660;19.338;2023-05-09T03:05:28;39.45;;;21.33;;
40951;SDS011;26682;51.660;19.338;2023-05-09T03:08:11;34.67;;;21.58;;
40951;SDS011;26682;51.660;19.338;2023-05-09T03:10:53;33.92;;;22.00;;
40951;SDS011;26682;51.660;19.338;2023-05-09T03:13:36;37.95;;;22.88;;
40951;SDS011;26682;51.660;19.338;2023-05-09T03:16:18;39.70;;;23.10;;
40951;SDS011;26682;51.660;19.338;2023-05-09T03:19:01;34.65;;;22.08;;
40951;SDS011;26682;51.660;19.338;2023-05-09T03:21:44;37.53;;;21.40;;
40951;SDS011;26682;51.660;19.338;2023-05-09T03:24:27;41.30;;;23.58;;
40951;SDS011;26682;51.660;19.338;2023-05-09T03:27:09;39.97;;;25.25;;
40951;SDS011;26682;51.660;19.338;2023-05-09T03:29:51;42.83;;;25.05;;
40951;SDS011;26682;51.660;19.338;2023-05-09T03:32:34;46.05;;;27.98;;
40951;SDS011;26682;51.660;19.338;2023-05-09T03:35:16;46.88;;;28.77;;
40951;SDS011;26682;51.660;19.338;2023-05-09T03:37:59;44.42;;;27.40;;
40951;SDS011;26682;51.660;19.338;2023-05-09T03:40:41;38.05;;;24.63;;
40951;SDS011;26682;51.660;19.338;2023-05-09T03:43:25;33.42;;;23.27;;
40951;SDS011;26682;51.660;19.338;2023-05-09T03:46:07;46.47;;;28.30;;
40951;SDS011;26682;51.660;19.338;2023-05-09T03:48:50;47.95;;;27.85;;
40951;SDS011;26682;51.660;19.338;2023-05-09T03:51:33;41.55;;;24.77;;
40951;SDS011;26682;51.660;19.338;2023-05-09T03:54:17;39.67;;;23.77;;
40951;SDS011;26682;51.660;19.338;2023-05-09T03:57:01;42.40;;;24.88;;
40951;SDS011;26682;51.660;19.338;2023-05-09T03:59:44;45.50;;;24.50;;
40951;SDS011;26682;51.660;19.338;2023-05-09T04:02:28;44.90;;;23.95;;
40951;SDS011;26682;51.660;19.338;2023-05-09T04:05:11;36.97;;;21.48;;
40951;SDS011;26682;51.660;19.338;2023-05-09T04:07:54;36.95;;;20.75;;
40951;SDS011;26682;51.660;19.338;2023-05-09T04:10:37;38.58;;;21.33;;
40951;SDS011;26682;51.660;19.338;2023-05-09T04:13:20;39.03;;;20.80;;
40951;SDS011;26682;51.660;19.338;2023-05-09T04:16:02;33.85;;;21.25;;
40951;SDS011;26682;51.660;19.338;2023-05-09T04:18:47;40.90;;;21.38;;
40951;SDS011;26682;51.660;19.338;2023-05-09T04:21:30;39.35;;;20.58;;
40951;SDS011;26682;51.660;19.338;2023-05-09T04:24:14;30.45;;;18.42;;
40951;SDS011;26682;51.660;19.338;2023-05-09T04:27:00;29.10;;;16.42;;
40951;SDS011;26682;51.660;19.338;2023-05-09T04:29:43;33.42;;;16.40;;
40951;SDS011;26682;51.660;19.338;2023-05-09T04:32:27;24.20;;;16.02;;
40951;SDS011;26682;51.660;19.338;2023-05-09T04:35:10;28.70;;;15.65;;
40951;SDS011;26682;51.660;19.338;2023-05-09T04:37:57;33.05;;;15.73;;
40951;SDS011;26682;51.660;19.338;2023-05-09T04:40:40;20.77;;;13.75;;
40951;SDS011;26682;51.660;19.338;2023-05-09T04:43:24;19.80;;;12.63;;
40951;SDS011;26682;51.660;19.338;2023-05-09T04:46:09;16.90;;;12.23;;
40951;SDS011;26682;51.660;19.338;2023-05-09T04:48:52;17.73;;;11.70;;
40951;SDS011;26682;51.660;19.338;2023-05-09T04:51:34;17.23;;;11.30;;
40951;SDS011;26682;51.660;19.338;2023-05-09T04:54:17;17.50;;;10.73;;
40951;SDS011;26682;51.660;19.338;2023-05-09T04:57:01;19.55;;;12.27;;
40951;SDS011;26682;51.660;19.338;2023-05-09T05:00:01;34.47;;;13.00;;
40951;SDS011;26682;51.660;19.338;2023-05-09T05:02:44;27.63;;;12.55;;
40951;SDS011;26682;51.660;19.338;2023-05-09T05:05:27;18.17;;;11.32;;
40951;SDS011;26682;51.660;19.338;2023-05-09T05:08:10;15.10;;;10.00;;
40951;SDS011;26682;51.660;19.338;2023-05-09T05:10:55;14.57;;;10.07;;
40951;SDS011;26682;51.660;19.338;2023-05-09T05:13:38;16.38;;;10.00;;
40951;SDS011;26682;51.660;19.338;2023-05-09T05:16:21;14.52;;;9.23;;
40951;SDS011;26682;51.660;19.338;2023-05-09T05:19:04;14.48;;;9.70;;
40951;SDS011;26682;51.660;19.338;2023-05-09T05:21:51;16.60;;;7.78;;
40951;SDS011;26682;51.660;19.338;2023-05-09T05:24:35;10.98;;;7.88;;
40951;SDS011;26682;51.660;19.338;2023-05-09T05:27:17;13.80;;;8.35;;
40951;SDS011;26682;51.660;19.338;2023-05-09T05:30:00;13.32;;;8.43;;
40951;SDS011;26682;51.660;19.338;2023-05-09T05:32:43;13.23;;;7.40;;
40951;SDS011;26682;51.660;19.338;2023-05-09T05:35:28;12.68;;;7.32;;
40951;SDS011;26682;51.660;19.338;2023-05-09T05:38:11;13.15;;;7.05;;
40951;SDS011;26682;51.660;19.338;2023-05-09T05:40:55;12.75;;;6.20;;
40951;SDS011;26682;51.660;19.338;2023-05-09T05:43:39;10.10;;;5.72;;
40951;SDS011;26682;51.660;19.338;2023-05-09T05:46:21;9.60;;;6.00;;
40951;SDS011;26682;51.660;19.338;2023-05-09T05:49:05;7.80;;;5.60;;
40951;SDS011;26682;51.660;19.338;2023-05-09T05:51:48;8.85;;;6.03;;
40951;SDS011;26682;51.660;19.338;2023-05-09T05:54:30;7.15;;;6.03;;
40951;SDS011;26682;51.660;19.338;2023-05-09T05:57:14;8.27;;;5.85;;
40951;SDS011;26682;51.660;19.338;2023-05-09T05:59:57;11.60;;;5.82;;
40951;SDS011;26682;51.660;19.338;2023-05-09T06:02:41;11.45;;;5.47;;
40951;SDS011;26682;51.660;19.338;2023-05-09T06:05:42;8.20;;;5.28;;
40951;SDS011;26682;51.660;19.338;2023-05-09T06:08:27;5.78;;;4.00;;
40951;SDS011;26682;51.660;19.338;2023-05-09T06:11:09;9.35;;;4.13;;
40951;SDS011;26682;51.660;19.338;2023-05-09T06:13:52;5.78;;;3.80;;
40951;SDS011;26682;51.660;19.338;2023-05-09T06:16:34;9.20;;;4.00;;
40951;SDS011;26682;51.660;19.338;2023-05-09T06:19:17;5.60;;;3.28;;
40951;SDS011;26682;51.660;19.338;2023-05-09T06:21:59;6.80;;;4.65;;
40951;SDS011;26682;51.660;19.338;2023-05-09T06:24:41;4.40;;;3.80;;
40951;SDS011;26682;51.660;19.338;2023-05-09T06:27:24;5.88;;;3.65;;
40951;SDS011;26682;51.660;19.338;2023-05-09T06:30:07;5.20;;;3.15;;
40951;SDS011;26682;51.660;19.338;2023-05-09T06:33:06;4.78;;;3.25;;
40951;SDS011;26682;51.660;19.338;2023-05-09T06:35:48;4.03;;;3.15;;
40951;SDS011;26682;51.660;19.338;2023-05-09T06:38:30;4.60;;;3.40;;
40951;SDS011;26682;51.660;19.338;2023-05-09T06:41:14;7.28;;;3.50;;
40951;SDS011;26682;51.660;19.338;2023-05-09T06:43:57;5.40;;;3.03;;
40951;SDS011;26682;51.660;19.338;2023-05-09T06:46:39;6.50;;;3.15;;
40951;SDS011;26682;51.660;19.338;2023-05-09T06:49:22;4.25;;;2.92;;
40951;SDS011;26682;51.660;19.338;2023-05-09T06:52:04;4.25;;;3.00;;
40951;SDS011;26682;51.660;19.338;2023-05-09T06:54:47;6.30;;;2.95;;
40951;SDS011;26682;51.660;19.338;2023-05-09T06:57:29;5.47;;;3.33;;
40951;SDS011;26682;51.660;19.338;2023-05-09T07:00:12;8.68;;;3.17;;
40951;SDS011;26682;51.660;19.338;2023-05-09T07:02:54;6.30;;;3.28;;
40951;SDS011;26682;51.660;19.338;2023-05-09T07:05:37;4.95;;;3.35;;
40951;SDS011;26682;51.660;19.338;2023-05-09T07:08:19;4.32;;;3.25;;
40951;SDS011;26682;51.660;19.338;2023-05-09T07:11:02;4.53;;;3.47;;
40951;SDS011;26682;51.660;19.338;2023-05-09T07:13:44;4.65;;;3.00;;
40951;SDS011;26682;51.660;19.338;2023-05-09T07:16:27;6.43;;;3.30;;
40951;SDS011;26682;51.660;19.338;2023-05-09T07:19:10;25.35;;;4.07;;
40951;SDS011;26682;51.660;19.338;2023-05-09T07:21:52;6.25;;;3.30;;
40951;SDS011;26682;51.660;19.338;2023-05-09T07:24:35;4.82;;;3.38;;
40951;SDS011;26682;51.660;19.338;2023-05-09T07:27:17;3.45;;;2.90;;
40951;SDS011;26682;51.660;19.338;2023-05-09T07:29:59;7.38;;;2.17;;
40951;SDS011;26682;51.660;19.338;2023-05-09T07:32:42;4.35;;;2.30;;
40951;SDS011;26682;51.660;19.338;2023-05-09T07:35:24;4.65;;;2.65;;
40951;SDS011;26682;51.660;19.338;2023-05-09T07:38:07;6.65;;;2.67;;
40951;SDS011;26682;51.660;19.338;2023-05-09T07:40:51;9.15;;;2.92;;
40951;SDS011;26682;51.660;19.338;2023-05-09T07:43:34;8.70;;;2.60;;
40951;SDS011;26682;51.660;19.338;2023-05-09T07:46:16;5.90;;;2.33;;
40951;SDS011;26682;51.660;19.338;2023-05-09T07:48:59;4.20;;;3.00;;
40951;SDS011;26682;51.660;19.338;2023-05-09T07:51:41;4.50;;;3.05;;
40951;SDS011;26682;51.660;19.338;2023-05-09T07:54:24;5.88;;;2.60;;
40951;SDS011;26682;51.660;19.338;2023-05-09T07:57:06;6.55;;;2.97;;
40951;SDS011;26682;51.660;19.338;2023-05-09T07:59:49;4.38;;;2.90;;
40951;SDS011;26682;51.660;19.338;2023-05-09T08:02:31;3.20;;;2.70;;
40951;SDS011;26682;51.660;19.338;2023-05-09T08:05:14;5.00;;;2.30;;
40951;SDS011;26682;51.660;19.338;2023-05-09T08:07:57;5.13;;;2.10;;
40951;SDS011;26682;51.660;19.338;2023-05-09T08:10:40;5.25;;;1.95;;
40951;SDS011;26682;51.660;19.338;2023-05-09T08:13:22;3.00;;;2.03;;
40951;SDS011;26682;51.660;19.338;2023-05-09T08:16:05;5.30;;;2.40;;
40951;SDS011;26682;51.660;19.338;2023-05-09T08:18:48;5.63;;;1.90;;
40951;SDS011;26682;51.660;19.338;2023-05-09T08:21:30;5.20;;;1.70;;
40951;SDS011;26682;51.660;19.338;2023-05-09T08:24:13;3.22;;;1.85;;
40951;SDS011;26682;51.660;19.338;2023-05-09T08:26:55;4.20;;;2.40;;
40951;SDS011;26682;51.660;19.338;2023-05-09T08:29:40;4.65;;;2.22;;
40951;SDS011;26682;51.660;19.338;2023-05-09T08:32:23;3.88;;;2.20;;
40951;SDS011;26682;51.660;19.338;2023-05-09T08:35:06;4.05;;;2.05;;
40951;SDS011;26682;51.660;19.338;2023-05-09T08:37:50;6.35;;;2.30;;
40951;SDS011;26682;51.660;19.338;2023-05-09T08:40:34;5.28;;;2.40;;
40951;SDS011;26682;51.660;19.338;2023-05-09T08:43:18;5.40;;;2.10;;
40951;SDS011;26682;51.660;19.338;2023-05-09T08:46:05;5.18;;;2.30;;
40951;SDS011;26682;51.660;19.338;2023-05-09T08:48:49;4.82;;;2.03;;
40951;SDS011;26682;51.660;19.338;2023-05-09T08:51:33;5.00;;;2.05;;
40951;SDS011;26682;51.660;19.338;2023-05-09T08:54:18;5.83;;;2.33;;
40951;SDS011;26682;51.660;19.338;2023-05-09T08:57:03;6.22;;;2.00;;
40951;SDS011;26682;51.660;19.338;2023-05-09T08:59:46;2.75;;;1.65;;
40951;SDS011;26682;51.660;19.338;2023-05-09T09:02:30;3.00;;;1.70;;
40951;SDS011;26682;51.660;19.338;2023-05-09T09:05:14;4.15;;;1.80;;
40951;SDS011;26682;51.660;19.338;2023-05-09T09:08:16;1.58;;;1.48;;
40951;SDS011;26682;51.660;19.338;2023-05-09T09:11:00;2.42;;;2.00;;
40951;SDS011;26682;51.660;19.338;2023-05-09T09:13:43;4.35;;;2.03;;
40951;SDS011;26682;51.660;19.338;2023-05-09T09:16:28;5.00;;;1.90;;
40951;SDS011;26682;51.660;19.338;2023-05-09T09:19:12;3.75;;;1.90;;
40951;SDS011;26682;51.660;19.338;2023-05-09T09:21:58;4.75;;;2.10;;
40951;SDS011;26682;51.660;19.338;2023-05-09T09:27:26;3.25;;;1.83;;
40951;SDS011;26682;51.660;19.338;2023-05-09T09:30:09;2.60;;;1.73;;
40951;SDS011;26682;51.660;19.338;2023-05-09T09:32:53;3.15;;;1.67;;
40951;SDS011;26682;51.660;19.338;2023-05-09T09:35:39;4.65;;;1.67;;
40951;SDS011;26682;51.660;19.338;2023-05-09T09:38:24;2.60;;;1.70;;
40951;SDS011;26682;51.660;19.338;2023-05-09T09:41:07;3.05;;;1.90;;
40951;SDS011;26682;51.660;19.338;2023-05-09T09:43:51;4.65;;;1.90;;
40951;SDS011;26682;51.660;19.338;2023-05-09T09:46:41;4.03;;;1.92;;
40951;SDS011;26682;51.660;19.338;2023-05-09T09:49:34;3.38;;;2.20;;
40951;SDS011;26682;51.660;19.338;2023-05-09T09:52:22;3.80;;;2.00;;
40951;SDS011;26682;51.660;19.338;2023-05-09T09:55:08;3.10;;;2.03;;
40951;SDS011;26682;51.660;19.338;2023-05-09T09:57:51;3.28;;;1.90;;
40951;SDS011;26682;51.660;19.338;2023-05-09T10:00:34;4.97;;;2.47;;
40951;SDS011;26682;51.660;19.338;2023-05-09T10:03:20;6.68;;;2.05;;
40951;SDS011;26682;51.660;19.338;2023-05-09T10:06:03;3.08;;;1.80;;
40951;SDS011;26682;51.660;19.338;2023-05-09T10:08:46;6.30;;;1.88;;
40951;SDS011;26682;51.660;19.338;2023-05-09T10:11:30;8.82;;;1.75;;
40951;SDS011;26682;51.660;19.338;2023-05-09T10:14:14;2.63;;;2.20;;
40951;SDS011;26682;51.660;19.338;2023-05-09T10:16:57;2.35;;;1.80;;
40951;SDS011;26682;51.660;19.338;2023-05-09T10:19:43;2.33;;;1.70;;
40951;SDS011;26682;51.660;19.338;2023-05-09T10:22:28;2.50;;;2.00;;
40951;SDS011;26682;51.660;19.338;2023-05-09T10:25:19;3.72;;;2.00;;
40951;SDS011;26682;51.660;19.338;2023-05-09T10:28:05;3.55;;;2.13;;
40951;SDS011;26682;51.660;19.338;2023-05-09T10:33:50;6.15;;;2.10;;
40951;SDS011;26682;51.660;19.338;2023-05-09T10:36:32;4.00;;;1.63;;
40951;SDS011;26682;51.660;19.338;2023-05-09T10:39:15;3.35;;;1.95;;
40951;SDS011;26682;51.660;19.338;2023-05-09T10:41:58;4.82;;;1.83;;
40951;SDS011;26682;51.660;19.338;2023-05-09T10:44:42;5.25;;;1.98;;
40951;SDS011;26682;51.660;19.338;2023-05-09T10:47:25;4.05;;;1.90;;
40951;SDS011;26682;51.660;19.338;2023-05-09T10:50:10;11.27;;;2.92;;
40951;SDS011;26682;51.660;19.338;2023-05-09T10:58:28;6.50;;;2.50;;
40951;SDS011;26682;51.660;19.338;2023-05-09T11:01:51;6.85;;;1.85;;
40951;SDS011;26682;51.660;19.338;2023-05-09T11:04:27;5.18;;;1.88;;
40951;SDS011;26682;51.660;19.338;2023-05-09T11:07:24;4.18;;;1.85;;
40951;SDS011;26682;51.660;19.338;2023-05-09T11:10:09;4.60;;;2.13;;
40951;SDS011;26682;51.660;19.338;2023-05-09T11:13:01;5.60;;;2.13;;
40951;SDS011;26682;51.660;19.338;2023-05-09T11:18:49;3.90;;;2.00;;
40951;SDS011;26682;51.660;19.338;2023-05-09T11:21:34;4.00;;;1.92;;
40951;SDS011;26682;51.660;19.338;2023-05-09T11:24:17;2.72;;;1.80;;
40951;SDS011;26682;51.660;19.338;2023-05-09T11:27:17;6.22;;;1.98;;
40951;SDS011;26682;51.660;19.338;2023-05-09T11:30:05;2.25;;;2.00;;
40951;SDS011;26682;51.660;19.338;2023-05-09T11:32:52;3.50;;;1.90;;
40951;SDS011;26682;51.660;19.338;2023-05-09T11:35:42;3.17;;;2.17;;
40951;SDS011;26682;51.660;19.338;2023-05-09T11:38:25;3.67;;;2.15;;
40951;SDS011;26682;51.660;19.338;2023-05-09T11:41:08;2.75;;;1.75;;
40951;SDS011;26682;51.660;19.338;2023-05-09T11:43:51;3.80;;;2.00;;
40951;SDS011;26682;51.660;19.338;2023-05-09T11:46:37;2.80;;;1.85;;
40951;SDS011;26682;51.660;19.338;2023-05-09T11:49:21;3.58;;;2.03;;
40951;SDS011;26682;51.660;19.338;2023-05-09T11:52:04;6.80;;;2.03;;
40951;SDS011;26682;51.660;19.338;2023-05-09T11:54:46;3.97;;;2.30;;
40951;SDS011;26682;51.660;19.338;2023-05-09T11:57:30;6.13;;;2.05;;
40951;SDS011;26682;51.660;19.338;2023-05-09T12:00:17;3.70;;;2.30;;
40951;SDS011;26682;51.660;19.338;2023-05-09T12:03:03;3.80;;;2.00;;
40951;SDS011;26682;51.660;19.338;2023-05-09T12:05:47;7.25;;;2.30;;
40951;SDS011;26682;51.660;19.338;2023-05-09T12:08:29;5.63;;;2.00;;
40951;SDS011;26682;51.660;19.338;2023-05-09T12:11:14;5.57;;;2.00;;
40951;SDS011;26682;51.660;19.338;2023-05-09T12:13:57;4.07;;;2.20;;
40951;SDS011;26682;51.660;19.338;2023-05-09T12:16:43;4.22;;;1.98;;
40951;SDS011;26682;51.660;19.338;2023-05-09T12:19:27;4.47;;;2.25;;
40951;SDS011;26682;51.660;19.338;2023-05-09T12:22:10;4.10;;;2.22;;
40951;SDS011;26682;51.660;19.338;2023-05-09T12:24:52;3.38;;;1.85;;
40951;SDS011;26682;51.660;19.338;2023-05-09T12:27:36;3.30;;;2.08;;
40951;SDS011;26682;51.660;19.338;2023-05-09T12:30:21;2.70;;;1.70;;
40951;SDS011;26682;51.660;19.338;2023-05-09T12:33:03;2.05;;;1.80;;
40951;SDS011;26682;51.660;19.338;2023-05-09T12:36:00;6.70;;;2.03;;
40951;SDS011;26682;51.660;19.338;2023-05-09T12:38:51;3.15;;;2.03;;
40951;SDS011;26682;51.660;19.338;2023-05-09T12:41:44;6.05;;;1.98;;
40951;SDS011;26682;51.660;19.338;2023-05-09T12:44:43;4.75;;;1.98;;
40951;SDS011;26682;51.660;19.338;2023-05-09T12:47:30;6.40;;;1.92;;
40951;SDS011;26682;51.660;19.338;2023-05-09T12:50:13;6.85;;;2.92;;
40951;SDS011;26682;51.660;19.338;2023-05-09T12:52:56;3.42;;;2.28;;
40951;SDS011;26682;51.660;19.338;2023-05-09T12:55:44;2.70;;;1.90;;
40951;SDS011;26682;51.660;19.338;2023-05-09T12:58:30;9.23;;;2.38;;
40951;SDS011;26682;51.660;19.338;2023-05-09T13:01:14;4.18;;;2.00;;
40951;SDS011;26682;51.660;19.338;2023-05-09T13:04:00;11.63;;;2.60;;
40951;SDS011;26682;51.660;19.338;2023-05-09T13:06:48;7.68;;;2.10;;
40951;SDS011;26682;51.660;19.338;2023-05-09T13:09:43;3.38;;;1.98;;
40951;SDS011;26682;51.660;19.338;2023-05-09T13:12:36;2.72;;;1.83;;
40951;SDS011;26682;51.660;19.338;2023-05-09T13:15:20;4.38;;;2.13;;
40951;SDS011;26682;51.660;19.338;2023-05-09T13:18:03;9.73;;;2.17;;
40951;SDS011;26682;51.660;19.338;2023-05-09T13:20:46;3.10;;;2.08;;
40951;SDS011;26682;51.660;19.338;2023-05-09T13:23:29;5.05;;;1.92;;
40951;SDS011;26682;51.660;19.338;2023-05-09T13:26:11;2.53;;;1.90;;
40951;SDS011;26682;51.660;19.338;2023-05-09T13:28:54;9.20;;;2.20;;
40951;SDS011;26682;51.660;19.338;2023-05-09T13:31:37;4.88;;;1.80;;
40951;SDS011;26682;51.660;19.338;2023-05-09T13:34:19;4.15;;;1.63;;
40951;SDS011;26682;51.660;19.338;2023-05-09T13:37:05;4.18;;;1.50;;
40951;SDS011;26682;51.660;19.338;2023-05-09T13:39:47;4.47;;;1.50;;
40951;SDS011;26682;51.660;19.338;2023-05-09T13:42:32;3.72;;;1.50;;
40951;SDS011;26682;51.660;19.338;2023-05-09T13:45:15;3.15;;;1.83;;
40951;SDS011;26682;51.660;19.338;2023-05-09T13:47:58;3.50;;;1.50;;
40951;SDS011;26682;51.660;19.338;2023-05-09T13:50:40;2.28;;;1.50;;
40951;SDS011;26682;51.660;19.338;2023-05-09T13:53:22;5.10;;;1.92;;
40951;SDS011;26682;51.660;19.338;2023-05-09T13:56:06;5.25;;;2.10;;
40951;SDS011;26682;51.660;19.338;2023-05-09T13:58:50;4.78;;;2.00;;
40951;SDS011;26682;51.660;19.338;2023-05-09T14:01:33;4.63;;;1.58;;
40951;SDS011;26682;51.660;19.338;2023-05-09T14:04:16;2.60;;;1.75;;
40951;SDS011;26682;51.660;19.338;2023-05-09T14:06:59;2.80;;;1.90;;
40951;SDS011;26682;51.660;19.338;2023-05-09T14:09:42;3.22;;;1.70;;
40951;SDS011;26682;51.660;19.338;2023-05-09T14:12:26;3.38;;;1.60;;
40951;SDS011;26682;51.660;19.338;2023-05-09T14:15:09;6.90;;;1.83;;
40951;SDS011;26682;51.660;19.338;2023-05-09T14:17:52;8.30;;;1.90;;
40951;SDS011;26682;51.660;19.338;2023-05-09T14:20:34;3.72;;;1.50;;
40951;SDS011;26682;51.660;19.338;2023-05-09T14:23:18;4.60;;;1.60;;
40951;SDS011;26682;51.660;19.338;2023-05-09T14:26:01;2.92;;;1.13;;
40951;SDS011;26682;51.660;19.338;2023-05-09T14:28:43;4.50;;;2.75;;
40951;SDS011;26682;51.660;19.338;2023-05-09T14:31:26;3.65;;;1.60;;
40951;SDS011;26682;51.660;19.338;2023-05-09T14:34:09;2.85;;;1.52;;
40951;SDS011;26682;51.660;19.338;2023-05-09T14:36:52;1.67;;;1.58;;
40951;SDS011;26682;51.660;19.338;2023-05-09T14:39:34;5.30;;;2.67;;
40951;SDS011;26682;51.660;19.338;2023-05-09T14:42:17;4.55;;;2.28;;
40951;SDS011;26682;51.660;19.338;2023-05-09T14:45:00;2.92;;;1.65;;
40951;SDS011;26682;51.660;19.338;2023-05-09T14:47:43;7.60;;;2.30;;
40951;SDS011;26682;51.660;19.338;2023-05-09T14:50:25;6.97;;;1.92;;
40951;SDS011;26682;51.660;19.338;2023-05-09T14:53:08;5.57;;;2.08;;
40951;SDS011;26682;51.660;19.338;2023-05-09T14:55:51;6.03;;;1.85;;
40951;SDS011;26682;51.660;19.338;2023-05-09T14:58:34;3.65;;;1.80;;
40951;SDS011;26682;51.660;19.338;2023-05-09T15:01:17;5.15;;;1.80;;
40951;SDS011;26682;51.660;19.338;2023-05-09T15:04:01;6.60;;;1.77;;
40951;SDS011;26682;51.660;19.338;2023-05-09T15:06:44;3.67;;;1.52;;
40951;SDS011;26682;51.660;19.338;2023-05-09T15:09:27;2.75;;;1.17;;
40951;SDS011;26682;51.660;19.338;2023-05-09T15:12:09;1.40;;;1.25;;
40951;SDS011;26682;51.660;19.338;2023-05-09T15:14:52;4.80;;;1.50;;
40951;SDS011;26682;51.660;19.338;2023-05-09T15:17:36;2.63;;;1.63;;
40951;SDS011;26682;51.660;19.338;2023-05-09T15:20:18;3.67;;;1.42;;
40951;SDS011;26682;51.660;19.338;2023-05-09T15:23:01;5.47;;;1.88;;
40951;SDS011;26682;51.660;19.338;2023-05-09T15:25:46;2.95;;;1.42;;
40951;SDS011;26682;51.660;19.338;2023-05-09T15:28:28;7.60;;;1.40;;
40951;SDS011;26682;51.660;19.338;2023-05-09T15:31:11;2.50;;;1.60;;
40951;SDS011;26682;51.660;19.338;2023-05-09T15:33:57;2.92;;;1.33;;
40951;SDS011;26682;51.660;19.338;2023-05-09T15:36:41;3.25;;;1.40;;
40951;SDS011;26682;51.660;19.338;2023-05-09T15:39:24;4.38;;;1.65;;
40951;SDS011;26682;51.660;19.338;2023-05-09T15:42:13;9.82;;;1.92;;
40951;SDS011;26682;51.660;19.338;2023-05-09T15:44:56;2.13;;;1.33;;
40951;SDS011;26682;51.660;19.338;2023-05-09T15:47:39;3.03;;;1.70;;
40951;SDS011;26682;51.660;19.338;2023-05-09T15:50:22;4.20;;;1.67;;
40951;SDS011;26682;51.660;19.338;2023-05-09T15:53:06;4.20;;;1.67;;
40951;SDS011;26682;51.660;19.338;2023-05-09T15:55:49;5.25;;;1.80;;
40951;SDS011;26682;51.660;19.338;2023-05-09T15:58:32;5.53;;;1.92;;
40951;SDS011;26682;51.660;19.338;2023-05-09T16:01:15;6.70;;;1.50;;
40951;SDS011;26682;51.660;19.338;2023-05-09T16:03:58;4.40;;;1.65;;
40951;SDS011;26682;51.660;19.338;2023-05-09T16:06:41;2.17;;;1.48;;
40951;SDS011;26682;51.660;19.338;2023-05-09T16:09:24;3.60;;;1.77;;
40951;SDS011;26682;51.660;19.338;2023-05-09T16:12:06;3.78;;;1.65;;
40951;SDS011;26682;51.660;19.338;2023-05-09T16:14:50;2.63;;;1.80;;
40951;SDS011;26682;51.660;19.338;2023-05-09T16:17:32;3.47;;;2.35;;
40951;SDS011;26682;51.660;19.338;2023-05-09T16:20:15;2.63;;;1.92;;
40951;SDS011;26682;51.660;19.338;2023-05-09T16:22:58;4.82;;;2.17;;
40951;SDS011;26682;51.660;19.338;2023-05-09T16:25:41;3.05;;;2.28;;
40951;SDS011;26682;51.660;19.338;2023-05-09T16:28:25;3.97;;;2.00;;